Mae Hong Son, Thailand

3:50 PM ICT on July 24, 2016 (GMT +0700)
Mae Hong Son | | Change Station

Elev 928 ft 19.30 °N, 97.97 °E | Updated 50 minutes ago

Mostly Cloudy
Mostly Cloudy
90 °F
Feels Like 96 °F
N
4
Wind Variable Wind from Variable

Today
High -- | Low -- °F
--% Chance of Precip.
Yesterday
High -- | Low -- °F
Precip. -- in
Pressure 29.77 in
Visibility 6.2 miles
Clouds Few 2200 ft
Mostly Cloudy 2800 ft
Heat Index 96 °F
Dew Point 72 °F
Humidity 55%
Rainfall 0.00 in
Snow Depth Not available.
6:01 AM 7:07 PM
Waning Gibbous, 78% visible
METAR VTCH 240800Z VRB03KT 9999 VCSH FEW022 BKN028 32/22 Q1008 A2977 RMK RA W
Pressure 29.77 in
Visibility 6.2 miles
Clouds Few 2200 ft
Mostly Cloudy 2800 ft
Heat Index 96 °F
Dew Point 72 °F
Humidity 55%
Rainfall 0.00 in
Snow Depth Not available.
6:01 AM 7:07 PM
Waning Gibbous, 78% visible
METAR VTCH 240800Z VRB03KT 9999 VCSH FEW022 BKN028 32/22 Q1008 A2977 RMK RA W

10-Day Weather Forecast

No radar image for this location.
×

Almanac

Astronomy

Jul. 24, 2016 Rise Set
Actual Time
Civil Twilight
Nautical Twilight
Astronomical Twilight
Moon
Length of Visible Light
Length of Day
Tomorrow will be .
, % of the Moon is Illuminated

Today's Extremes

Country Highs Country Lows

Community

WunderPhotos

Upload Photos

1,927,041 photos uploaded!

WunderBlog® & News

Nearby

Air Quality

  Air Quality AQ Index Pollutant
Not available.

Snow Depth

Station Depth Elevation

Earthquake Activity

City Distance Mag. Time & Date
Minimum magnitude displayed is 2.5.

Coastal Water Temperatures

Place Temperature

Stations

Nearby Weather Stations

Station Location Temp. Windchill Dew Point Humidity Wind Precip. Elev Updated Type